createdAt,value
2022-10-13T00:00:44.081Z,98.90
2022-10-13T00:03:11.270Z,99.00
2022-10-13T00:05:43.220Z,99.00
2022-10-13T00:08:11.134Z,98.90
2022-10-13T00:10:42.301Z,99.00
2022-10-13T00:13:12.093Z,99.10
2022-10-13T00:15:40.533Z,99.00
2022-10-13T00:18:07.233Z,99.00
2022-10-13T00:20:34.736Z,98.90
2022-10-13T00:23:01.681Z,98.90
2022-10-13T00:25:28.316Z,99.00
2022-10-13T00:27:54.916Z,99.30
2022-10-13T00:30:27.130Z,99.10
2022-10-13T00:32:53.743Z,99.10
2022-10-13T00:35:20.292Z,99.10
2022-10-13T00:37:46.859Z,99.10
2022-10-13T00:40:13.471Z,99.00
2022-10-13T00:42:41.653Z,99.10
2022-10-13T00:45:29.570Z,99.10
2022-10-13T00:48:01.428Z,99.10
2022-10-13T00:50:35.859Z,99.20
2022-10-13T00:53:05.775Z,99.10
2022-10-13T00:55:36.681Z,99.00
2022-10-13T00:58:06.719Z,99.10
2022-10-13T01:00:34.631Z,99.10
2022-10-13T01:03:04.412Z,99.00
2022-10-13T01:05:31.359Z,99.00
2022-10-13T01:07:59.392Z,99.10
2022-10-13T01:10:34.795Z,99.00
2022-10-13T01:13:16.987Z,99.10
2022-10-13T01:16:19.620Z,99.10
2022-10-13T01:19:01.271Z,99.20
2022-10-13T01:21:59.048Z,99.20
2022-10-13T01:24:58.069Z,99.10
2022-10-13T01:27:47.851Z,99.30
2022-10-13T01:30:22.783Z,99.20
2022-10-13T01:33:04.728Z,99.10
2022-10-13T01:35:56.786Z,99.20
2022-10-13T01:38:33.042Z,99.20
2022-10-13T01:41:10.237Z,99.30
2022-10-13T01:43:50.696Z,99.40
2022-10-13T01:46:24.538Z,99.30
2022-10-13T01:48:55.062Z,99.40
2022-10-13T01:51:24.814Z,99.30
2022-10-13T01:53:53.114Z,99.30
2022-10-13T01:56:19.822Z,99.50
2022-10-13T01:58:49.864Z,99.40
2022-10-13T02:01:43.995Z,99.40
2022-10-13T02:04:32.246Z,99.50
2022-10-13T02:07:27.412Z,99.50
2022-10-13T02:10:05.679Z,99.50
2022-10-13T02:12:48.572Z,99.40
2022-10-13T02:15:19.842Z,99.50
2022-10-13T02:17:46.553Z,99.50
2022-10-13T02:20:14.974Z,99.50
2022-10-13T02:22:45.624Z,99.50
2022-10-13T02:25:12.928Z,99.50
2022-10-13T02:27:40.591Z,99.50
2022-10-13T02:30:07.881Z,99.50
2022-10-13T02:32:34.547Z,99.50
2022-10-13T02:35:01.162Z,99.50
2022-10-13T02:37:27.883Z,99.50
2022-10-13T02:39:54.619Z,99.50
2022-10-13T02:42:21.488Z,99.50
2022-10-13T02:44:48.316Z,99.50
2022-10-13T02:47:14.952Z,99.50
2022-10-13T02:49:41.560Z,99.50
2022-10-13T02:52:08.159Z,99.50
2022-10-13T02:54:37.623Z,99.60
2022-10-13T02:57:04.240Z,99.50
2022-10-13T02:59:30.876Z,99.50
2022-10-13T03:01:57.478Z,99.60
2022-10-13T03:04:25.886Z,99.70
2022-10-13T03:06:53.700Z,99.70
2022-10-13T03:09:20.317Z,99.70
2022-10-13T03:11:46.896Z,99.70
2022-10-13T03:14:13.496Z,99.80
2022-10-13T03:16:40.243Z,99.80
2022-10-13T03:19:09.887Z,99.80
2022-10-13T03:21:38.385Z,99.80
2022-10-13T03:24:08.215Z,99.90
2022-10-13T03:26:35.077Z,99.90
2022-10-13T03:29:01.997Z,99.90
2022-10-13T03:31:28.907Z,99.90
2022-10-13T03:34:01.954Z,99.90
2022-10-13T03:36:28.527Z,99.90
2022-10-13T03:38:55.157Z,99.90
2022-10-13T03:41:22.452Z,99.90
2022-10-13T03:43:51.823Z,99.90
2022-10-13T03:46:19.159Z,99.90
2022-10-13T03:48:47.946Z,99.90
2022-10-13T03:51:19.632Z,99.90
2022-10-13T03:53:49.912Z,99.90
2022-10-13T03:56:20.855Z,99.90
2022-10-13T03:58:57.949Z,99.90
2022-10-13T04:01:27.935Z,99.90
2022-10-13T04:03:56.035Z,99.90
2022-10-13T04:06:44.642Z,99.90
2022-10-13T04:09:11.222Z,99.90
2022-10-13T04:11:37.845Z,99.90
2022-10-13T04:14:04.681Z,99.90
2022-10-13T04:16:31.843Z,99.90
2022-10-13T04:19:01.833Z,99.90
2022-10-13T04:21:30.365Z,99.90
2022-10-13T04:23:58.928Z,99.90
2022-10-13T04:26:28.057Z,99.90
2022-10-13T04:28:55.678Z,99.90
2022-10-13T04:31:23.342Z,99.90
2022-10-13T04:33:51.028Z,99.90
2022-10-13T04:36:18.407Z,99.90
2022-10-13T04:38:46.843Z,99.90
2022-10-13T04:41:15.750Z,99.90
2022-10-13T04:43:43.008Z,99.90
2022-10-13T04:46:14.541Z,99.90
2022-10-13T04:48:41.644Z,99.90
2022-10-13T04:51:11.777Z,99.90
2022-10-13T04:53:38.692Z,99.90
2022-10-13T04:56:10.733Z,99.90
2022-10-13T04:58:38.793Z,99.90
2022-10-13T05:01:07.512Z,99.90
2022-10-13T05:03:34.721Z,99.90
2022-10-13T05:06:01.617Z,99.90
2022-10-13T05:08:28.301Z,99.90
2022-10-13T05:11:00.980Z,99.90
2022-10-13T05:13:29.664Z,99.90
2022-10-13T05:15:57.707Z,99.90
2022-10-13T05:18:24.619Z,99.90
2022-10-13T05:20:51.293Z,99.90
2022-10-13T05:23:17.957Z,99.90
2022-10-13T05:25:44.618Z,99.90
2022-10-13T05:28:13.866Z,99.90
2022-10-13T05:30:40.741Z,99.90
2022-10-13T05:33:07.435Z,99.90
2022-10-13T05:35:34.044Z,99.90
2022-10-13T05:38:00.654Z,99.90
2022-10-13T05:40:28.462Z,99.90
2022-10-13T05:43:00.383Z,99.90
2022-10-13T05:45:29.321Z,99.90
2022-10-13T05:47:55.952Z,99.90
2022-10-13T05:50:22.752Z,99.90
2022-10-13T05:52:50.105Z,99.90
2022-10-13T05:55:18.223Z,99.90
2022-10-13T05:57:49.637Z,99.90
2022-10-13T06:00:19.311Z,99.90
2022-10-13T06:02:54.759Z,99.90
2022-10-13T06:05:24.192Z,99.90
2022-10-13T06:07:54.138Z,99.90
2022-10-13T06:10:20.854Z,99.90
2022-10-13T06:12:47.561Z,99.90
2022-10-13T06:15:14.217Z,99.90
2022-10-13T06:17:40.869Z,99.90
2022-10-13T06:20:08.939Z,99.90
2022-10-13T06:22:36.501Z,99.90
2022-10-13T06:25:07.444Z,99.90
2022-10-13T06:27:34.558Z,99.90
2022-10-13T06:30:01.256Z,99.90
2022-10-13T06:32:27.896Z,99.90
2022-10-13T06:34:54.610Z,99.90
2022-10-13T06:37:26.982Z,99.90
2022-10-13T06:39:56.894Z,99.90
2022-10-13T06:42:23.712Z,99.90
2022-10-13T06:45:08.251Z,99.90
2022-10-13T06:47:34.965Z,99.90
2022-10-13T06:50:01.780Z,99.90
2022-10-13T06:52:28.561Z,99.90
2022-10-13T06:54:55.424Z,99.90
2022-10-13T06:57:22.577Z,99.90
2022-10-13T06:59:49.194Z,99.90
2022-10-13T07:02:15.775Z,99.90
2022-10-13T07:04:42.380Z,99.90
2022-10-13T07:07:08.992Z,99.90
2022-10-13T07:09:35.593Z,99.90
2022-10-13T07:12:03.239Z,99.90
2022-10-13T07:14:29.823Z,99.90
2022-10-13T07:16:56.455Z,99.90
2022-10-13T07:19:23.070Z,99.90
2022-10-13T07:21:49.823Z,99.90
2022-10-13T07:24:16.433Z,99.90
2022-10-13T07:26:43.104Z,99.90
2022-10-13T07:29:09.881Z,99.90
2022-10-13T07:31:36.546Z,99.90
2022-10-13T07:34:04.920Z,99.90
2022-10-13T07:36:33.015Z,99.90
2022-10-13T07:39:01.147Z,99.90
2022-10-13T07:41:27.785Z,99.90
2022-10-13T07:43:56.812Z,99.90
2022-10-13T07:46:24.339Z,99.90
2022-10-13T07:48:53.263Z,99.90
2022-10-13T07:51:21.631Z,99.90
2022-10-13T07:53:49.216Z,99.90
2022-10-13T07:56:16.520Z,99.90
2022-10-13T07:58:45.357Z,99.90
2022-10-13T08:01:12.723Z,99.90
2022-10-13T08:03:41.829Z,99.90
2022-10-13T08:06:17.330Z,99.90
2022-10-13T08:08:44.015Z,99.90
2022-10-13T08:11:16.631Z,99.90
2022-10-13T08:13:48.232Z,99.90
2022-10-13T08:16:20.547Z,99.90
2022-10-13T08:18:48.648Z,99.90
2022-10-13T08:24:12.579Z,99.90
2022-10-13T08:26:39.242Z,99.90
2022-10-13T08:29:23.034Z,99.90
2022-10-13T08:31:52.742Z,99.90
2022-10-13T08:34:20.056Z,99.90
2022-10-13T08:36:47.252Z,99.90
2022-10-13T08:39:14.068Z,99.90
2022-10-13T08:41:46.311Z,99.90
2022-10-13T08:45:21.892Z,99.90
2022-10-13T08:47:27.686Z,99.90
2022-10-13T08:50:01.279Z,99.90
2022-10-13T08:52:43.914Z,99.90
2022-10-13T08:55:44.232Z,99.90
2022-10-13T08:58:24.658Z,99.90
2022-10-13T09:01:14.689Z,99.90
2022-10-13T09:04:08.192Z,99.90
2022-10-13T09:06:41.498Z,99.90
2022-10-13T09:09:12.379Z,99.90
2022-10-13T09:11:41.893Z,99.90
2022-10-13T09:14:20.149Z,99.90
2022-10-13T09:16:46.764Z,99.90
2022-10-13T09:19:30.015Z,99.90
2022-10-13T09:22:13.268Z,99.90
2022-10-13T09:24:40.175Z,99.90
2022-10-13T09:27:14.605Z,99.90
2022-10-13T09:29:41.912Z,99.90
2022-10-13T09:32:19.930Z,99.90
2022-10-13T09:34:47.976Z,99.90
2022-10-13T09:37:21.057Z,99.90
2022-10-13T09:40:13.242Z,99.90
2022-10-13T09:42:40.819Z,99.90
2022-10-13T09:45:16.502Z,99.90
2022-10-13T09:47:51.074Z,99.90
2022-10-13T09:50:22.869Z,99.90
2022-10-13T09:52:50.978Z,99.90
2022-10-13T09:55:32.413Z,99.90
2022-10-13T09:58:23.114Z,99.90
2022-10-13T10:00:52.745Z,99.90
2022-10-13T10:03:30.548Z,99.90
2022-10-13T10:06:00.521Z,99.90
2022-10-13T10:09:01.563Z,99.90
2022-10-13T10:11:33.465Z,99.90
2022-10-13T10:14:22.594Z,99.90
2022-10-13T10:17:19.923Z,99.90
2022-10-13T10:20:14.371Z,99.90
2022-10-13T10:23:03.496Z,99.90
2022-10-13T10:25:37.987Z,99.90
2022-10-13T10:28:42.320Z,99.90
2022-10-13T10:31:26.769Z,99.90
2022-10-13T10:34:27.155Z,99.90
2022-10-13T10:37:21.397Z,99.90
2022-10-13T10:40:15.004Z,99.90
2022-10-13T10:43:25.680Z,99.90
2022-10-13T10:45:56.859Z,99.90
2022-10-13T10:48:32.580Z,99.90
2022-10-13T10:51:00.797Z,99.90
2022-10-13T10:53:56.485Z,99.90
2022-10-13T10:56:47.143Z,99.90
2022-10-13T10:59:40.139Z,99.90
2022-10-13T11:02:06.775Z,99.90
2022-10-13T11:04:46.812Z,99.90
2022-10-13T11:07:33.644Z,99.90
2022-10-13T11:10:01.312Z,99.90
2022-10-13T11:12:52.773Z,99.90
2022-10-13T11:15:28.750Z,99.90
2022-10-13T11:17:55.358Z,99.90
2022-10-13T11:20:21.964Z,99.90
2022-10-13T11:23:00.530Z,99.90
2022-10-13T11:25:47.477Z,99.90
2022-10-13T11:28:23.277Z,99.90
2022-10-13T11:30:55.224Z,99.90
2022-10-13T11:33:54.689Z,99.90
2022-10-13T11:38:21.972Z,99.90
2022-10-13T11:41:16.172Z,99.90
2022-10-13T11:43:55.845Z,99.90
2022-10-13T11:46:26.674Z,99.90
2022-10-13T11:48:55.999Z,99.90
2022-10-13T11:51:41.380Z,99.90
2022-10-13T11:54:27.703Z,99.90
2022-10-13T11:56:57.240Z,99.90
2022-10-13T11:59:26.706Z,99.90
2022-10-13T12:01:58.847Z,99.90
2022-10-13T12:04:28.615Z,99.90
2022-10-13T12:07:24.352Z,99.90
2022-10-13T12:09:53.428Z,99.90
2022-10-13T12:12:23.226Z,99.90
2022-10-13T12:14:52.869Z,99.90
2022-10-13T12:17:26.800Z,99.90
2022-10-13T12:20:04.998Z,99.90
2022-10-13T12:22:31.650Z,99.90
2022-10-13T12:25:04.629Z,99.90
2022-10-13T12:27:40.983Z,99.90
2022-10-13T12:30:30.976Z,99.90
2022-10-13T12:33:00.180Z,99.90
2022-10-13T12:35:30.249Z,99.90
2022-10-13T12:38:00.840Z,99.90
2022-10-13T12:40:28.358Z,99.90
2022-10-13T12:42:55.476Z,99.90
2022-10-13T12:45:26.326Z,99.90
2022-10-13T12:47:54.495Z,99.90
2022-10-13T12:50:30.085Z,99.90
2022-10-13T12:53:02.625Z,99.90
2022-10-13T12:55:31.077Z,99.90
2022-10-13T12:57:57.862Z,99.90
2022-10-13T13:00:29.433Z,99.90
2022-10-13T13:03:01.266Z,99.90
2022-10-13T13:05:50.767Z,99.90
2022-10-13T13:08:29.575Z,99.90
2022-10-13T13:10:57.874Z,99.90
2022-10-13T13:13:25.092Z,99.90
2022-10-13T13:15:52.262Z,99.90
2022-10-13T13:18:28.361Z,99.90
2022-10-13T13:20:55.323Z,99.90
2022-10-13T13:23:23.268Z,99.90
2022-10-13T13:26:15.060Z,99.90
2022-10-13T13:28:47.778Z,99.90
2022-10-13T13:31:16.730Z,99.90
2022-10-13T13:33:43.448Z,99.90
2022-10-13T13:36:24.759Z,99.90
2022-10-13T13:38:52.537Z,99.90
2022-10-13T13:41:19.561Z,99.90
2022-10-13T13:43:46.395Z,99.90
2022-10-13T13:46:19.663Z,99.90
2022-10-13T13:48:46.308Z,99.90
2022-10-13T13:51:12.924Z,99.90
2022-10-13T13:53:40.202Z,99.90
2022-10-13T13:56:12.730Z,99.90
2022-10-13T13:58:39.372Z,99.90
2022-10-13T14:01:06.055Z,99.90
2022-10-13T14:03:32.734Z,99.90
2022-10-13T14:05:59.336Z,99.90
2022-10-13T14:08:31.288Z,99.90
2022-10-13T14:10:58.712Z,99.90
2022-10-13T14:13:25.280Z,99.90
2022-10-13T14:15:58.720Z,99.90
2022-10-13T14:18:25.835Z,99.90
2022-10-13T14:20:52.620Z,99.90
2022-10-13T14:23:19.636Z,99.90
2022-10-13T14:25:46.319Z,99.90
2022-10-13T14:28:17.905Z,99.90
2022-10-13T14:30:44.943Z,99.90
2022-10-13T14:33:11.567Z,99.90
2022-10-13T14:35:38.204Z,99.90
2022-10-13T14:38:06.075Z,99.90
2022-10-13T14:40:33.729Z,99.90
2022-10-13T14:43:00.306Z,99.90
2022-10-13T14:45:26.897Z,99.90
2022-10-13T14:47:53.621Z,99.90
2022-10-13T14:50:20.602Z,99.90
2022-10-13T14:52:51.808Z,99.90
2022-10-13T14:55:18.372Z,99.90
2022-10-13T14:57:44.981Z,99.90
2022-10-13T15:00:12.116Z,99.90
2022-10-13T15:02:38.816Z,99.90
2022-10-13T15:05:06.009Z,99.90
2022-10-13T15:07:32.581Z,99.90
2022-10-13T15:10:06.732Z,99.90
2022-10-13T15:12:33.911Z,99.90
2022-10-13T15:15:00.557Z,99.90
2022-10-13T15:17:27.907Z,99.90
2022-10-13T15:19:54.767Z,99.90
2022-10-13T15:22:21.606Z,99.90
2022-10-13T15:24:48.481Z,99.90
2022-10-13T15:27:15.305Z,99.90
2022-10-13T15:29:41.989Z,99.90
2022-10-13T15:32:12.621Z,99.90
2022-10-13T15:34:39.991Z,99.90
2022-10-13T15:37:07.363Z,99.90
2022-10-13T15:39:33.996Z,99.90
2022-10-13T15:42:00.636Z,99.90
2022-10-13T15:44:27.730Z,99.90
2022-10-13T15:47:07.360Z,99.90
2022-10-13T15:49:39.401Z,99.90
2022-10-13T15:52:06.100Z,99.90
2022-10-13T15:54:32.772Z,99.90
2022-10-13T15:56:59.858Z,99.90
2022-10-13T15:59:26.511Z,99.90
2022-10-13T16:01:53.150Z,99.90
2022-10-13T16:04:19.710Z,99.90
2022-10-13T16:06:46.412Z,99.90
2022-10-13T16:09:13.031Z,99.90
2022-10-13T16:11:39.725Z,99.90
2022-10-13T16:14:06.302Z,99.90
2022-10-13T16:16:32.889Z,99.90
2022-10-13T16:19:00.132Z,99.90
2022-10-13T16:21:27.356Z,99.90
2022-10-13T16:23:54.205Z,99.90
2022-10-13T16:26:21.350Z,99.90
2022-10-13T16:28:48.193Z,99.90
2022-10-13T16:31:16.836Z,99.90
2022-10-13T16:33:44.909Z,99.90
2022-10-13T16:36:17.585Z,99.90
2022-10-13T16:38:46.009Z,99.90
2022-10-13T16:41:15.259Z,99.90
2022-10-13T16:43:42.448Z,99.90
2022-10-13T16:46:13.264Z,99.90
2022-10-13T16:48:41.320Z,99.90
2022-10-13T16:51:11.781Z,99.90
2022-10-13T16:53:39.061Z,99.90
2022-10-13T16:56:06.806Z,99.90
2022-10-13T16:58:33.612Z,99.90
2022-10-13T17:01:09.658Z,99.90
2022-10-13T17:03:37.291Z,99.90
2022-10-13T17:06:04.676Z,99.90
2022-10-13T17:08:31.685Z,99.90
2022-10-13T17:11:00.844Z,99.90
2022-10-13T17:13:27.479Z,99.90
2022-10-13T17:15:55.988Z,99.90
2022-10-13T17:18:23.441Z,99.90
2022-10-13T17:20:56.119Z,99.90
2022-10-13T17:23:24.304Z,99.90
2022-10-13T17:25:51.744Z,99.90
2022-10-13T17:28:18.809Z,99.90
2022-10-13T17:30:45.759Z,99.90
2022-10-13T17:33:12.551Z,99.90
2022-10-13T17:35:40.879Z,99.90
2022-10-13T17:38:07.499Z,99.90
2022-10-13T17:40:35.850Z,99.90
2022-10-13T17:43:02.766Z,99.90
2022-10-13T17:45:30.707Z,99.90
2022-10-13T17:47:58.822Z,99.90
2022-10-13T17:50:29.183Z,99.90
2022-10-13T17:52:55.813Z,99.90
2022-10-13T17:55:22.443Z,99.90
2022-10-13T17:57:49.048Z,99.90
2022-10-13T18:00:16.334Z,99.90
2022-10-13T18:02:43.694Z,99.90
2022-10-13T18:05:10.282Z,99.90
2022-10-13T18:07:36.960Z,99.90
2022-10-13T18:10:05.380Z,99.90
2022-10-13T18:12:32.504Z,99.90
2022-10-13T18:14:59.096Z,99.90
2022-10-13T18:17:25.706Z,99.90
2022-10-13T18:19:53.740Z,99.90
2022-10-13T18:22:20.329Z,99.90
2022-10-13T18:24:47.059Z,99.90
2022-10-13T18:27:14.266Z,99.90
2022-10-13T18:29:42.088Z,99.90
2022-10-13T18:32:08.899Z,99.90
2022-10-13T18:34:36.117Z,99.90
2022-10-13T18:37:05.449Z,99.90
2022-10-13T18:39:34.209Z,99.90
2022-10-13T18:42:01.171Z,99.90
2022-10-13T18:44:36.597Z,99.90
2022-10-13T18:47:03.295Z,99.90
2022-10-13T18:49:33.093Z,99.90
2022-10-13T18:52:01.212Z,99.90
2022-10-13T18:54:28.424Z,99.90
2022-10-13T18:56:55.095Z,99.90
2022-10-13T18:59:21.767Z,99.90
2022-10-13T19:01:48.616Z,99.90
2022-10-13T19:04:16.739Z,99.90
2022-10-13T19:06:44.518Z,99.90
2022-10-13T19:09:13.548Z,99.90
2022-10-13T19:11:40.596Z,99.90
2022-10-13T19:14:10.763Z,99.90
2022-10-13T19:16:40.315Z,99.90
2022-10-13T19:19:09.103Z,99.90
2022-10-13T19:21:36.943Z,99.90
2022-10-13T19:24:04.885Z,99.90
2022-10-13T19:26:33.744Z,99.90
2022-10-13T19:29:07.137Z,99.90
2022-10-13T19:31:35.047Z,99.90
2022-10-13T19:34:07.088Z,99.90
2022-10-13T19:36:37.568Z,99.90
2022-10-13T19:39:07.191Z,99.90
2022-10-13T19:41:34.535Z,99.90
2022-10-13T19:44:02.340Z,99.90
2022-10-13T19:46:38.650Z,99.90
2022-10-13T19:49:05.506Z,99.90
2022-10-13T19:51:33.414Z,99.90
2022-10-13T19:54:00.549Z,99.90
2022-10-13T19:56:31.305Z,99.90
2022-10-13T19:58:58.451Z,99.90
2022-10-13T20:01:25.148Z,99.90
2022-10-13T20:03:51.801Z,99.90
2022-10-13T20:06:19.391Z,99.90
2022-10-13T20:08:46.678Z,99.90
2022-10-13T20:11:19.351Z,99.90
2022-10-13T20:13:48.937Z,99.90
2022-10-13T20:16:18.790Z,99.90
2022-10-13T20:18:50.265Z,99.90
2022-10-13T20:21:17.824Z,99.90
2022-10-13T20:23:44.440Z,99.90
2022-10-13T20:26:12.668Z,99.90
2022-10-13T20:28:43.032Z,99.90
2022-10-13T20:31:12.694Z,99.90
2022-10-13T20:33:39.592Z,99.90
2022-10-13T20:36:14.320Z,99.90
2022-10-13T20:38:41.361Z,99.90
2022-10-13T20:41:29.844Z,99.90
2022-10-13T20:44:00.699Z,99.90
2022-10-13T20:46:29.803Z,99.90
2022-10-13T20:49:13.105Z,99.90
2022-10-13T20:51:41.342Z,99.90
2022-10-13T20:54:08.556Z,99.90
2022-10-13T20:56:35.746Z,99.90
2022-10-13T20:59:04.600Z,99.90
2022-10-13T21:01:31.356Z,99.90
2022-10-13T21:03:58.297Z,99.90
2022-10-13T21:06:25.913Z,99.90
2022-10-13T21:08:52.975Z,99.90
2022-10-13T21:11:21.696Z,99.90
2022-10-13T21:13:49.238Z,99.90
2022-10-13T21:16:18.311Z,99.90
2022-10-13T21:18:49.343Z,99.90
2022-10-13T21:21:18.566Z,99.90
2022-10-13T21:23:46.049Z,99.90
2022-10-13T21:26:20.403Z,99.90
2022-10-13T21:28:48.528Z,99.90
2022-10-13T21:31:16.743Z,99.90
2022-10-13T21:33:43.830Z,99.90
2022-10-13T21:36:18.668Z,99.90
2022-10-13T21:38:46.517Z,99.90
2022-10-13T21:41:14.194Z,99.90
2022-10-13T21:43:40.987Z,99.90
2022-10-13T21:46:28.175Z,99.90
2022-10-13T21:48:56.932Z,99.90
2022-10-13T21:51:26.453Z,99.90
2022-10-13T21:53:55.557Z,99.90
2022-10-13T21:56:23.323Z,99.90
2022-10-13T21:58:50.105Z,99.90
2022-10-13T22:01:17.854Z,99.90
2022-10-13T22:03:46.907Z,99.90
2022-10-13T22:06:18.753Z,99.90
2022-10-13T22:08:48.398Z,99.90
2022-10-13T22:11:23.025Z,99.90
2022-10-13T22:13:49.996Z,99.90
2022-10-13T22:16:20.303Z,99.90
2022-10-13T22:18:47.592Z,99.90
2022-10-13T22:21:17.426Z,99.90
2022-10-13T22:23:44.995Z,99.90
2022-10-13T22:26:12.569Z,99.90
2022-10-13T22:28:39.822Z,99.90
2022-10-13T22:31:08.686Z,99.90
2022-10-13T22:33:37.133Z,99.90
2022-10-13T22:36:15.151Z,99.90
2022-10-13T22:38:42.396Z,99.90
2022-10-13T22:41:09.836Z,99.90
2022-10-13T22:43:37.317Z,99.90
2022-10-13T22:46:14.775Z,99.90
2022-10-13T22:48:41.767Z,99.90
2022-10-13T22:51:17.160Z,99.90
2022-10-13T22:53:44.652Z,99.90
2022-10-13T22:56:14.592Z,99.90
2022-10-13T22:58:41.188Z,99.90
2022-10-13T23:01:13.492Z,99.90
2022-10-13T23:03:40.962Z,99.90
2022-10-13T23:06:12.203Z,99.90
2022-10-13T23:08:39.047Z,99.90
2022-10-13T23:11:05.711Z,99.90
2022-10-13T23:13:32.318Z,99.90
2022-10-13T23:16:03.418Z,99.90
2022-10-13T23:18:34.277Z,99.90
2022-10-13T23:21:08.259Z,99.90
2022-10-13T23:23:34.917Z,99.90
2022-10-13T23:26:09.951Z,99.90
2022-10-13T23:28:37.152Z,99.90
2022-10-13T23:31:06.059Z,99.90
2022-10-13T23:33:33.484Z,99.90
2022-10-13T23:36:01.719Z,99.90
2022-10-13T23:38:29.863Z,99.90
2022-10-13T23:41:03.033Z,99.90
2022-10-13T23:43:29.635Z,99.90
2022-10-13T23:45:56.303Z,99.90
2022-10-13T23:48:22.864Z,99.90
2022-10-13T23:50:49.440Z,99.90
2022-10-13T23:53:16.104Z,99.90
2022-10-13T23:55:42.648Z,99.90
2022-10-13T23:58:09.354Z,99.90
